createdAt,value
2022-11-20T00:01:37.433Z,73.75
2022-11-20T00:04:07.126Z,73.87
2022-11-20T00:06:35.415Z,73.58
2022-11-20T00:09:04.344Z,73.49
2022-11-20T00:11:33.905Z,72.90
2022-11-20T00:14:04.060Z,73.13
2022-11-20T00:16:35.371Z,72.63
2022-11-20T00:19:04.083Z,72.46
2022-11-20T00:21:34.192Z,72.32
2022-11-20T00:24:02.472Z,72.37
2022-11-20T00:26:31.326Z,72.13
2022-11-20T00:29:01.803Z,72.24
2022-11-20T00:31:31.667Z,71.85
2022-11-20T00:33:59.996Z,71.80
2022-11-20T00:36:30.852Z,72.04
2022-11-20T00:39:01.161Z,71.75
2022-11-20T00:41:30.813Z,71.04
2022-11-20T00:43:59.430Z,71.15
2022-11-20T00:46:30.117Z,71.12
2022-11-20T00:48:59.073Z,71.38
2022-11-20T00:51:29.203Z,71.39
2022-11-20T00:54:00.987Z,71.33
2022-11-20T00:56:29.806Z,71.79
2022-11-20T00:59:01.470Z,71.58
2022-11-20T01:01:31.084Z,71.06
2022-11-20T01:04:01.779Z,71.11
2022-11-20T01:06:32.821Z,71.67
2022-11-20T01:09:06.316Z,71.90
2022-11-20T01:11:37.373Z,71.81
2022-11-20T01:14:08.658Z,71.49
2022-11-20T01:16:39.916Z,71.85
2022-11-20T01:19:17.345Z,71.81
2022-11-20T01:21:48.448Z,71.99
2022-11-20T01:24:20.817Z,72.20
2022-11-20T01:26:51.970Z,72.31
2022-11-20T01:29:23.954Z,72.75
2022-11-20T01:31:53.671Z,73.03
2022-11-20T01:34:24.302Z,73.10
2022-11-20T01:36:52.924Z,73.45
2022-11-20T01:39:25.004Z,73.24
2022-11-20T01:42:13.861Z,73.27
2022-11-20T01:44:54.248Z,72.77
2022-11-20T01:47:32.634Z,72.81
2022-11-20T01:50:06.840Z,72.76
2022-11-20T01:52:41.412Z,72.23
2022-11-20T01:55:16.916Z,72.27
2022-11-20T01:57:47.909Z,72.29
2022-11-20T02:00:20.768Z,71.98
2022-11-20T02:02:54.175Z,72.06
2022-11-20T02:05:33.417Z,71.98
2022-11-20T02:08:03.951Z,72.26
2022-11-20T02:10:34.025Z,72.44
2022-11-20T02:13:19.987Z,72.28
2022-11-20T02:15:49.141Z,72.55
2022-11-20T02:18:21.296Z,72.48
2022-11-20T02:20:54.402Z,72.06
2022-11-20T02:23:32.142Z,72.25
2022-11-20T02:26:04.308Z,72.35
2022-11-20T02:28:32.700Z,72.58
2022-11-20T02:31:01.050Z,72.34
2022-11-20T02:33:29.351Z,72.21
2022-11-20T02:35:57.668Z,72.29
2022-11-20T02:38:26.279Z,72.40
2022-11-20T02:40:55.868Z,72.69
2022-11-20T02:43:26.114Z,72.56
2022-11-20T02:45:54.442Z,72.81
2022-11-20T02:48:25.095Z,72.55
2022-11-20T02:50:53.684Z,72.67
2022-11-20T02:53:22.025Z,72.68
2022-11-20T02:55:50.399Z,72.81
2022-11-20T02:58:18.783Z,72.99
2022-11-20T03:00:48.508Z,72.71
2022-11-20T03:03:16.845Z,72.73
2022-11-20T03:05:45.139Z,72.88
2022-11-20T03:08:13.407Z,72.96
2022-11-20T03:10:41.760Z,73.09
2022-11-20T03:13:10.358Z,73.29
2022-11-20T03:15:39.607Z,73.23
2022-11-20T03:18:09.354Z,73.25
2022-11-20T03:20:37.711Z,73.21
2022-11-20T03:23:06.290Z,74.21
2022-11-20T03:25:34.616Z,74.14
2022-11-20T03:28:03.065Z,74.89
2022-11-20T03:30:31.374Z,75.70
2022-11-20T03:32:59.956Z,76.13
2022-11-20T03:35:29.722Z,76.81
2022-11-20T03:37:59.621Z,76.55
2022-11-20T03:40:28.059Z,76.11
2022-11-20T03:42:56.484Z,76.73
2022-11-20T03:45:25.012Z,76.71
2022-11-20T03:47:53.770Z,76.54
2022-11-20T03:50:22.282Z,76.24
2022-11-20T03:52:52.249Z,76.13
2022-11-20T03:55:20.904Z,75.89
2022-11-20T03:57:49.242Z,75.83
2022-11-20T04:00:18.612Z,75.88
2022-11-20T04:02:46.985Z,75.60
2022-11-20T04:05:15.481Z,75.50
2022-11-20T04:07:43.795Z,75.36
2022-11-20T04:10:13.675Z,75.22
2022-11-20T04:12:41.965Z,75.72
2022-11-20T04:15:11.354Z,75.93
2022-11-20T04:17:39.729Z,75.31
2022-11-20T04:20:09.784Z,75.90
2022-11-20T04:22:38.155Z,75.76
2022-11-20T04:25:07.309Z,75.96
2022-11-20T04:27:37.014Z,76.12
2022-11-20T04:30:06.409Z,75.82
2022-11-20T04:32:34.717Z,76.18
2022-11-20T04:35:03.090Z,76.50
2022-11-20T04:37:31.431Z,76.58
2022-11-20T04:39:59.950Z,76.08
2022-11-20T04:42:30.956Z,76.56
2022-11-20T04:45:00.777Z,77.08
2022-11-20T04:47:29.470Z,76.86
2022-11-20T04:49:57.933Z,77.05
2022-11-20T04:52:26.287Z,77.05
2022-11-20T04:54:54.839Z,76.98
2022-11-20T04:57:23.770Z,77.33
2022-11-20T04:59:52.185Z,76.76
2022-11-20T05:02:22.227Z,76.72
2022-11-20T05:04:50.669Z,76.95
2022-11-20T05:07:19.255Z,76.95
2022-11-20T05:09:47.714Z,77.12
2022-11-20T05:12:16.151Z,76.90
2022-11-20T05:14:44.671Z,77.12
2022-11-20T05:17:13.684Z,77.15
2022-11-20T05:19:43.413Z,77.00
2022-11-20T05:22:11.831Z,77.00
2022-11-20T05:24:40.247Z,77.20
2022-11-20T05:27:08.665Z,77.00
2022-11-20T05:29:37.068Z,76.76
2022-11-20T05:32:06.809Z,77.13
2022-11-20T05:34:35.443Z,77.29
2022-11-20T05:37:05.549Z,77.20
2022-11-20T05:39:33.823Z,77.36
2022-11-20T05:42:19.726Z,77.43
2022-11-20T05:44:48.180Z,77.25
2022-11-20T05:47:16.472Z,77.28
2022-11-20T05:49:44.839Z,77.43
2022-11-20T05:52:14.540Z,77.28
2022-11-20T05:54:42.973Z,77.40
2022-11-20T05:57:11.370Z,77.32
2022-11-20T05:59:39.753Z,77.25
2022-11-20T06:02:08.141Z,77.47
2022-11-20T06:04:36.502Z,77.54
2022-11-20T06:07:06.592Z,77.39
2022-11-20T06:09:36.653Z,77.39
2022-11-20T06:12:05.931Z,77.54
2022-11-20T06:14:34.428Z,77.24
2022-11-20T06:17:02.894Z,77.47
2022-11-20T06:19:31.255Z,77.67
2022-11-20T06:21:59.606Z,77.95
2022-11-20T06:24:28.065Z,78.03
2022-11-20T06:26:57.837Z,78.19
2022-11-20T06:29:30.087Z,78.35
2022-11-20T06:32:02.096Z,78.05
2022-11-20T06:34:30.496Z,78.19
2022-11-20T06:36:58.937Z,78.18
2022-11-20T06:39:27.300Z,78.61
2022-11-20T06:41:58.958Z,78.83
2022-11-20T06:44:28.109Z,79.00
2022-11-20T06:46:56.452Z,78.67
2022-11-20T06:49:25.191Z,78.82
2022-11-20T06:51:53.663Z,78.92
2022-11-20T06:54:22.124Z,79.07
2022-11-20T06:56:50.945Z,79.28
2022-11-20T06:59:21.093Z,79.43
2022-11-20T07:01:49.555Z,80.75
2022-11-20T07:04:17.868Z,82.79
2022-11-20T07:06:46.532Z,84.12
2022-11-20T07:09:15.039Z,83.88
2022-11-20T07:11:43.458Z,83.66
2022-11-20T07:14:11.938Z,83.61
2022-11-20T07:16:41.660Z,84.69
2022-11-20T07:19:10.014Z,86.33
2022-11-20T07:21:38.381Z,86.95
2022-11-20T07:24:07.198Z,87.16
2022-11-20T07:26:36.490Z,86.84
2022-11-20T07:29:04.941Z,86.12
2022-11-20T07:31:33.229Z,86.09
2022-11-20T07:34:03.189Z,85.83
2022-11-20T07:36:31.539Z,86.39
2022-11-20T07:38:59.835Z,86.97
2022-11-20T07:41:28.643Z,87.46
2022-11-20T07:43:57.081Z,86.86
2022-11-20T07:46:25.455Z,87.42
2022-11-20T07:48:54.278Z,86.92
2022-11-20T07:51:24.158Z,87.28
2022-11-20T07:53:55.879Z,86.90
2022-11-20T07:56:24.205Z,87.23
2022-11-20T07:58:52.658Z,88.01
2022-11-20T08:01:21.289Z,88.51
2022-11-20T08:03:49.639Z,89.46
2022-11-20T08:06:19.536Z,90.54
2022-11-20T08:08:49.339Z,89.94
2022-11-20T08:11:49.623Z,90.00
2022-11-20T08:14:18.017Z,90.43
2022-11-20T08:16:49.045Z,91.32
2022-11-20T08:19:19.824Z,92.06
2022-11-20T08:21:48.542Z,91.91
2022-11-20T08:24:18.278Z,91.76
2022-11-20T08:26:46.740Z,92.22
2022-11-20T08:29:15.097Z,92.28
2022-11-20T08:31:43.876Z,92.38
2022-11-20T08:34:17.644Z,92.23
2022-11-20T08:36:47.526Z,92.18
2022-11-20T08:39:18.285Z,91.98
2022-11-20T08:41:46.761Z,92.10
2022-11-20T08:44:15.052Z,92.63
2022-11-20T08:46:44.929Z,92.74
2022-11-20T08:49:15.744Z,93.62
2022-11-20T08:51:44.722Z,94.05
2022-11-20T08:54:13.114Z,94.61
2022-11-20T08:56:42.913Z,94.88
2022-11-20T08:59:36.761Z,94.99
2022-11-20T09:01:59.593Z,95.64
2022-11-20T09:04:27.872Z,96.25
2022-11-20T09:06:56.160Z,96.70
2022-11-20T09:09:25.053Z,96.85
2022-11-20T09:11:55.001Z,97.09
2022-11-20T09:14:25.777Z,97.63
2022-11-20T09:16:54.391Z,98.01
2022-11-20T09:19:38.245Z,97.75
2022-11-20T09:22:06.657Z,98.29
2022-11-20T09:24:35.002Z,98.47
2022-11-20T09:27:08.011Z,98.63
2022-11-20T09:29:36.393Z,98.93
2022-11-20T09:32:05.005Z,98.96
2022-11-20T09:34:34.064Z,99.44
2022-11-20T09:37:06.158Z,99.54
2022-11-20T09:39:39.751Z,99.92
2022-11-20T09:42:35.356Z,99.97
2022-11-20T09:45:28.723Z,100.00
2022-11-20T09:48:32.179Z,99.65
2022-11-20T09:51:15.957Z,99.41
2022-11-20T09:54:02.930Z,100.00
2022-11-20T09:56:31.681Z,100.00
2022-11-20T09:59:07.529Z,100.00
2022-11-20T10:01:41.873Z,100.00
2022-11-20T10:04:18.436Z,100.00
2022-11-20T10:07:30.165Z,100.00
2022-11-20T10:09:52.853Z,99.95
2022-11-20T10:12:29.646Z,100.00
2022-11-20T10:15:22.012Z,100.00
2022-11-20T10:18:13.596Z,100.00
2022-11-20T10:20:51.019Z,100.00
2022-11-20T10:23:50.692Z,100.00
2022-11-20T10:26:30.646Z,100.00
2022-11-20T10:29:12.309Z,100.00
2022-11-20T10:31:44.515Z,100.00
2022-11-20T10:34:24.309Z,100.00
2022-11-20T10:36:58.077Z,100.00
2022-11-20T10:39:37.433Z,100.00
2022-11-20T10:42:13.683Z,100.00
2022-11-20T10:45:06.333Z,100.00
2022-11-20T10:47:36.873Z,100.00
2022-11-20T10:50:10.982Z,100.00
2022-11-20T10:52:50.223Z,100.00
2022-11-20T10:55:35.289Z,100.00
2022-11-20T10:58:12.476Z,100.00
2022-11-20T11:00:41.135Z,100.00
2022-11-20T11:03:28.262Z,100.00
2022-11-20T11:06:06.178Z,100.00
2022-11-20T11:08:40.494Z,100.00
2022-11-20T11:11:22.414Z,100.00
2022-11-20T11:13:51.177Z,100.00
2022-11-20T11:16:24.181Z,100.00
2022-11-20T11:18:54.384Z,100.00
2022-11-20T11:21:26.225Z,100.00
2022-11-20T11:24:19.569Z,100.00
2022-11-20T11:26:57.386Z,100.00
2022-11-20T11:29:27.814Z,100.00
2022-11-20T11:32:07.371Z,100.00
2022-11-20T11:34:37.260Z,100.00
2022-11-20T11:37:06.576Z,100.00
2022-11-20T11:39:44.681Z,100.00
2022-11-20T11:42:20.158Z,100.00
2022-11-20T11:45:07.854Z,100.00
2022-11-20T11:47:45.104Z,100.00
2022-11-20T11:50:22.024Z,100.00
2022-11-20T11:53:11.447Z,100.00
2022-11-20T11:55:46.065Z,100.00
2022-11-20T11:58:30.527Z,100.00
2022-11-20T12:01:05.545Z,100.00
2022-11-20T12:03:39.622Z,100.00
2022-11-20T12:06:15.823Z,100.00
2022-11-20T12:08:51.777Z,100.00
2022-11-20T12:11:28.834Z,100.00
2022-11-20T12:14:03.038Z,100.00
2022-11-20T12:16:37.215Z,100.00
2022-11-20T12:19:13.156Z,100.00
2022-11-20T12:22:01.467Z,100.00
2022-11-20T12:24:46.030Z,100.00
2022-11-20T12:27:46.660Z,100.00
2022-11-20T12:30:17.727Z,100.00
2022-11-20T12:33:10.429Z,100.00
2022-11-20T12:35:55.109Z,100.00
2022-11-20T12:38:42.738Z,100.00
2022-11-20T12:41:41.122Z,100.00
2022-11-20T12:44:42.983Z,100.00
2022-11-20T12:47:23.778Z,100.00
2022-11-20T12:50:00.395Z,100.00
2022-11-20T12:52:44.835Z,100.00
2022-11-20T12:55:30.882Z,100.00
2022-11-20T12:58:10.754Z,100.00
2022-11-20T13:00:51.786Z,100.00
2022-11-20T13:03:39.262Z,100.00
2022-11-20T13:06:16.498Z,100.00
2022-11-20T13:08:50.879Z,100.00
2022-11-20T13:11:27.678Z,100.00
2022-11-20T13:14:18.854Z,100.00
2022-11-20T13:16:54.511Z,100.00
2022-11-20T13:19:23.771Z,100.00
2022-11-20T13:21:52.786Z,100.00
2022-11-20T13:24:28.887Z,100.00
2022-11-20T13:27:22.745Z,100.00
2022-11-20T13:30:12.902Z,100.00
2022-11-20T13:32:51.966Z,100.00
2022-11-20T13:35:34.993Z,100.00
2022-11-20T13:38:10.496Z,100.00
2022-11-20T13:40:41.059Z,100.00
2022-11-20T13:43:24.971Z,100.00
2022-11-20T13:46:03.997Z,100.00
2022-11-20T13:48:35.364Z,100.00
2022-11-20T13:51:30.178Z,100.00
2022-11-20T13:54:20.397Z,100.00
2022-11-20T13:57:04.041Z,100.00
2022-11-20T13:59:58.379Z,100.00
2022-11-20T14:02:30.119Z,100.00
2022-11-20T14:05:01.094Z,100.00
2022-11-20T14:07:38.335Z,100.00
2022-11-20T14:10:08.077Z,100.00
2022-11-20T14:12:37.876Z,100.00
2022-11-20T14:15:25.606Z,100.00
2022-11-20T14:17:54.002Z,100.00
2022-11-20T14:20:26.483Z,100.00
2022-11-20T14:22:56.102Z,100.00
2022-11-20T14:25:28.184Z,100.00
2022-11-20T14:28:00.070Z,100.00
2022-11-20T14:30:38.519Z,100.00
2022-11-20T14:33:07.141Z,100.00
2022-11-20T14:35:47.378Z,100.00
2022-11-20T14:38:20.104Z,100.00
2022-11-20T14:40:48.516Z,100.00
2022-11-20T14:43:24.872Z,100.00
2022-11-20T14:46:02.394Z,100.00
2022-11-20T14:48:36.294Z,100.00
2022-11-20T14:51:04.865Z,100.00
2022-11-20T14:53:33.265Z,100.00
2022-11-20T14:56:04.113Z,100.00
2022-11-20T14:58:35.380Z,100.00
2022-11-20T15:01:08.121Z,100.00
2022-11-20T15:03:39.355Z,100.00
2022-11-20T15:06:09.643Z,100.00
2022-11-20T15:08:38.658Z,100.00
2022-11-20T15:11:20.706Z,100.00
2022-11-20T15:13:49.139Z,100.00
2022-11-20T15:16:21.569Z,100.00
2022-11-20T15:18:50.592Z,100.00
2022-11-20T15:21:21.837Z,100.00
2022-11-20T15:23:50.685Z,100.00
2022-11-20T15:26:26.528Z,100.00
2022-11-20T15:28:55.623Z,100.00
2022-11-20T15:31:26.065Z,100.00
2022-11-20T15:33:54.585Z,100.00
2022-11-20T15:36:22.938Z,100.00
2022-11-20T15:38:51.402Z,100.00
2022-11-20T15:41:19.848Z,100.00
2022-11-20T15:43:48.246Z,100.00
2022-11-20T15:46:18.685Z,100.00
2022-11-20T15:48:56.877Z,100.00
2022-11-20T15:51:29.726Z,100.00
2022-11-20T15:53:58.970Z,100.00
2022-11-20T15:56:27.980Z,100.00
2022-11-20T15:58:56.363Z,100.00
2022-11-20T16:01:25.182Z,100.00
2022-11-20T16:03:54.854Z,100.00
2022-11-20T16:06:23.176Z,100.00
2022-11-20T16:08:51.622Z,100.00
2022-11-20T16:11:20.984Z,100.00
2022-11-20T16:14:06.885Z,100.00
2022-11-20T16:16:37.415Z,100.00
2022-11-20T16:19:07.632Z,100.00
2022-11-20T16:21:38.302Z,100.00
2022-11-20T16:24:09.484Z,100.00
2022-11-20T16:26:38.614Z,100.00
2022-11-20T16:29:08.367Z,100.00
2022-11-20T16:31:37.215Z,100.00
2022-11-20T16:34:12.188Z,100.00
2022-11-20T16:36:42.922Z,100.00
2022-11-20T16:39:12.045Z,100.00
2022-11-20T16:41:41.090Z,100.00
2022-11-20T16:44:12.522Z,100.00
2022-11-20T16:46:41.856Z,100.00
2022-11-20T16:49:15.200Z,100.00
2022-11-20T16:51:43.842Z,100.00
2022-11-20T16:54:16.397Z,100.00
2022-11-20T16:56:48.548Z,100.00
2022-11-20T16:59:17.127Z,100.00
2022-11-20T17:01:45.565Z,100.00
2022-11-20T17:04:15.505Z,100.00
2022-11-20T17:06:45.840Z,100.00
2022-11-20T17:09:14.488Z,100.00
2022-11-20T17:11:43.212Z,100.00
2022-11-20T17:14:12.572Z,99.78
2022-11-20T17:16:41.312Z,99.83
2022-11-20T17:19:10.074Z,100.00
2022-11-20T17:21:40.401Z,99.27
2022-11-20T17:24:12.103Z,99.35
2022-11-20T17:26:43.243Z,99.46
2022-11-20T17:29:14.808Z,98.91
2022-11-20T17:31:44.548Z,98.74
2022-11-20T17:34:15.842Z,98.62
2022-11-20T17:36:46.612Z,98.59
2022-11-20T17:39:16.038Z,98.13
2022-11-20T17:41:44.769Z,97.53
2022-11-20T17:44:14.459Z,98.43
2022-11-20T17:46:43.020Z,98.23
2022-11-20T17:49:11.392Z,97.98
2022-11-20T17:51:40.695Z,97.21
2022-11-20T17:54:12.526Z,98.08
2022-11-20T17:56:58.257Z,98.69
2022-11-20T17:59:26.849Z,98.16
2022-11-20T18:01:56.786Z,98.05
2022-11-20T18:04:28.246Z,97.71
2022-11-20T18:06:56.649Z,97.77
2022-11-20T18:09:26.522Z,97.83
2022-11-20T18:11:55.075Z,97.16
2022-11-20T18:14:36.449Z,96.80
2022-11-20T18:17:08.165Z,97.25
2022-11-20T18:19:44.878Z,97.63
2022-11-20T18:22:24.046Z,97.35
2022-11-20T18:24:53.767Z,97.12
2022-11-20T18:27:23.922Z,96.67
2022-11-20T18:29:52.788Z,96.78
2022-11-20T18:32:22.629Z,96.52
2022-11-20T18:34:52.573Z,96.71
2022-11-20T18:37:21.602Z,96.92
2022-11-20T18:39:50.741Z,96.60
2022-11-20T18:42:38.131Z,96.12
2022-11-20T18:45:07.620Z,95.72
2022-11-20T18:47:40.231Z,95.39
2022-11-20T18:50:10.892Z,95.28
2022-11-20T18:52:45.533Z,94.50
2022-11-20T18:55:14.093Z,95.61
2022-11-20T18:57:43.920Z,97.17
2022-11-20T19:00:14.186Z,98.19
2022-11-20T19:02:43.538Z,97.89
2022-11-20T19:05:13.498Z,97.31
2022-11-20T19:07:42.092Z,97.09
2022-11-20T19:10:11.111Z,96.94
2022-11-20T19:12:39.597Z,96.74
2022-11-20T19:15:10.767Z,97.13
2022-11-20T19:17:39.229Z,97.95
2022-11-20T19:20:08.559Z,97.71
2022-11-20T19:22:37.312Z,97.62
2022-11-20T19:25:06.983Z,97.39
2022-11-20T19:27:35.516Z,96.84
2022-11-20T19:30:04.041Z,96.51
2022-11-20T19:32:35.313Z,96.63
2022-11-20T19:35:04.757Z,96.72
2022-11-20T19:37:35.156Z,96.74
2022-11-20T19:40:04.838Z,97.37
2022-11-20T19:42:33.812Z,98.00
2022-11-20T19:45:02.190Z,98.18
2022-11-20T19:48:00.532Z,98.95
2022-11-20T19:50:20.595Z,98.80
2022-11-20T19:52:51.074Z,98.30
2022-11-20T19:55:21.467Z,98.41
2022-11-20T19:57:50.106Z,98.52
2022-11-20T20:00:26.647Z,98.26
2022-11-20T20:02:59.529Z,99.31
2022-11-20T20:05:29.282Z,99.10
2022-11-20T20:07:57.704Z,98.84
2022-11-20T20:10:26.562Z,98.83
2022-11-20T20:12:54.884Z,98.18
2022-11-20T20:15:23.228Z,98.42
2022-11-20T20:17:53.402Z,99.04
2022-11-20T20:20:22.022Z,99.10
2022-11-20T20:22:51.818Z,98.60
2022-11-20T20:25:20.379Z,100.00
2022-11-20T20:27:48.771Z,100.00
2022-11-20T20:30:17.232Z,100.00
2022-11-20T20:32:45.616Z,100.00
2022-11-20T20:35:13.982Z,100.00
2022-11-20T20:37:42.418Z,100.00
2022-11-20T20:40:15.278Z,100.00
2022-11-20T20:42:43.919Z,100.00
2022-11-20T20:45:12.821Z,100.00
2022-11-20T20:47:42.622Z,100.00
2022-11-20T20:50:13.283Z,100.00
2022-11-20T20:52:41.621Z,98.19
2022-11-20T20:55:12.688Z,96.98
2022-11-20T20:57:41.964Z,96.54
2022-11-20T21:00:11.351Z,95.44
2022-11-20T21:02:39.887Z,94.05
2022-11-20T21:05:09.190Z,93.39
2022-11-20T21:07:58.340Z,92.27
2022-11-20T21:10:28.327Z,91.58
2022-11-20T21:12:56.750Z,90.75
2022-11-20T21:15:25.069Z,90.05
2022-11-20T21:17:53.423Z,89.60
2022-11-20T21:20:39.512Z,89.54
2022-11-20T21:23:11.139Z,89.36
2022-11-20T21:25:41.372Z,88.85
2022-11-20T21:28:13.150Z,89.14
2022-11-20T21:30:45.463Z,89.44
2022-11-20T21:33:13.869Z,89.41
2022-11-20T21:35:42.381Z,89.53
2022-11-20T21:38:11.130Z,89.17
2022-11-20T21:40:40.890Z,89.08
2022-11-20T21:43:09.237Z,88.55
2022-11-20T21:45:37.683Z,88.65
2022-11-20T21:48:07.610Z,88.87
2022-11-20T21:50:36.344Z,89.72
2022-11-20T21:53:04.825Z,90.22
2022-11-20T21:55:33.129Z,89.69
2022-11-20T21:58:02.842Z,89.57
2022-11-20T22:00:31.309Z,89.77
2022-11-20T22:02:59.593Z,89.01
2022-11-20T22:05:28.015Z,88.61
2022-11-20T22:07:56.420Z,88.15
2022-11-20T22:10:24.756Z,87.93
2022-11-20T22:13:16.327Z,87.38
2022-11-20T22:16:00.372Z,86.50
2022-11-20T22:18:29.497Z,86.66
2022-11-20T22:20:57.836Z,86.91
2022-11-20T22:23:26.257Z,86.82
2022-11-20T22:25:54.885Z,86.39
2022-11-20T22:28:23.283Z,85.62
2022-11-20T22:30:52.929Z,84.74
2022-11-20T22:33:21.460Z,83.18
2022-11-20T22:35:49.766Z,82.33
2022-11-20T22:38:18.066Z,81.54
2022-11-20T22:40:46.813Z,80.18
2022-11-20T22:43:16.215Z,79.13
2022-11-20T22:45:45.658Z,79.20
2022-11-20T22:48:15.540Z,79.09
2022-11-20T22:50:43.866Z,80.33
2022-11-20T22:53:12.140Z,81.46
2022-11-20T22:55:40.538Z,84.15
2022-11-20T22:58:08.845Z,87.62
2022-11-20T23:00:37.168Z,87.78
2022-11-20T23:03:05.515Z,87.96
2022-11-20T23:05:35.315Z,88.48
2022-11-20T23:08:03.718Z,89.29
2022-11-20T23:10:32.212Z,89.58
2022-11-20T23:13:00.524Z,89.78
2022-11-20T23:15:28.843Z,89.47
2022-11-20T23:17:57.155Z,89.78
2022-11-20T23:20:25.566Z,88.90
2022-11-20T23:22:55.270Z,88.06
2022-11-20T23:25:23.624Z,88.11
2022-11-20T23:27:51.967Z,88.08
2022-11-20T23:30:20.557Z,87.56
2022-11-20T23:32:48.961Z,86.99
2022-11-20T23:35:17.478Z,86.67
2022-11-20T23:37:45.733Z,86.49
2022-11-20T23:40:15.947Z,86.28
2022-11-20T23:43:04.289Z,86.56
2022-11-20T23:45:32.639Z,86.53
2022-11-20T23:48:00.936Z,86.22
2022-11-20T23:50:29.238Z,86.63
2022-11-20T23:52:57.552Z,86.51
2022-11-20T23:55:27.386Z,86.63
2022-11-20T23:57:55.756Z,86.85
